createdAt,value
2022-12-23T07:13:33.213Z,991.56
2022-12-23T07:14:35.204Z,991.53
2022-12-23T07:15:37.242Z,991.49
2022-12-23T07:16:39.331Z,991.46
2022-12-23T07:17:41.361Z,991.49
2022-12-23T07:18:43.372Z,991.47
2022-12-23T07:19:45.387Z,991.53
2022-12-23T07:20:47.416Z,991.51
2022-12-23T07:21:49.427Z,991.52
2022-12-23T07:22:51.443Z,991.54
2022-12-23T07:23:53.462Z,991.53
2022-12-23T07:24:55.492Z,991.58
2022-12-23T07:25:57.534Z,991.60
2022-12-23T07:26:59.567Z,991.56
2022-12-23T07:28:01.578Z,991.53
2022-12-23T07:29:03.617Z,991.49
2022-12-23T07:30:05.624Z,991.57
2022-12-23T07:31:07.726Z,991.51
2022-12-23T07:32:09.794Z,991.55
2022-12-23T07:33:11.814Z,991.52
2022-12-23T07:34:13.813Z,991.52
2022-12-23T07:35:15.851Z,991.52
2022-12-23T07:36:17.895Z,991.56
2022-12-23T07:37:19.896Z,991.62
2022-12-23T07:38:21.929Z,991.61
2022-12-23T07:39:23.958Z,991.67
2022-12-23T07:40:25.987Z,991.68
2022-12-23T07:41:28.025Z,991.68
2022-12-23T07:42:46.780Z,991.69
2022-12-23T07:43:31.480Z,991.67
2022-12-23T07:44:33.512Z,991.69
2022-12-23T07:45:35.602Z,991.72
2022-12-23T07:46:37.624Z,991.71
2022-12-23T07:47:39.623Z,991.75
2022-12-23T07:48:41.658Z,991.77
2022-12-23T07:49:43.689Z,991.76
2022-12-23T07:50:45.689Z,991.73
2022-12-23T07:51:47.713Z,991.68
2022-12-23T07:52:49.746Z,991.70
2022-12-23T07:53:51.768Z,991.72
2022-12-23T07:54:53.808Z,991.70
2022-12-23T07:55:56.773Z,991.70
2022-12-23T07:56:57.924Z,991.74
2022-12-23T07:57:59.964Z,991.80
2022-12-23T07:59:01.990Z,991.80
2022-12-23T08:00:04.031Z,991.83
2022-12-23T08:01:06.099Z,991.80
2022-12-23T08:02:08.335Z,991.82
2022-12-23T08:03:09.427Z,991.82
2022-12-23T08:04:11.471Z,991.85
2022-12-23T08:05:13.705Z,991.83
2022-12-23T08:06:14.661Z,991.85
2022-12-23T08:07:16.688Z,991.85
2022-12-23T08:08:18.721Z,991.86
2022-12-23T08:09:20.799Z,991.88
2022-12-23T08:10:22.822Z,991.92
2022-12-23T08:11:24.933Z,991.96
2022-12-23T08:12:27.033Z,991.99
2022-12-23T08:13:29.084Z,991.93
2022-12-23T08:14:31.124Z,991.89
2022-12-23T08:15:33.219Z,991.90
2022-12-23T08:16:41.245Z,991.89
2022-12-23T08:17:36.694Z,991.88
2022-12-23T08:18:38.705Z,991.92
2022-12-23T08:19:40.738Z,991.92
2022-12-23T08:20:42.751Z,991.92
2022-12-23T08:21:44.765Z,991.93
2022-12-23T08:22:46.811Z,991.96
2022-12-23T08:23:48.846Z,991.95
2022-12-23T08:24:50.879Z,991.95
2022-12-23T08:25:52.908Z,992.05
2022-12-23T08:26:54.915Z,992.09
2022-12-23T08:27:56.930Z,992.03
2022-12-23T08:28:58.961Z,992.03
2022-12-23T08:30:00.977Z,992.01
2022-12-23T08:31:03.086Z,992.03
2022-12-23T08:32:05.107Z,992.01
2022-12-23T08:33:07.129Z,992.01
2022-12-23T08:34:09.165Z,992.00
2022-12-23T08:35:11.177Z,992.03
2022-12-23T08:36:16.274Z,992.04
2022-12-23T08:37:14.659Z,992.06
2022-12-23T08:38:16.684Z,992.04
2022-12-23T08:39:18.717Z,992.07
2022-12-23T08:40:20.723Z,992.09
2022-12-23T08:41:22.755Z,992.06
2022-12-23T08:42:24.779Z,992.05
2022-12-23T08:43:33.635Z,992.07
2022-12-23T08:44:28.289Z,992.09
2022-12-23T08:45:30.278Z,992.08
2022-12-23T08:46:32.413Z,992.11
2022-12-23T08:47:34.468Z,992.13
2022-12-23T08:48:36.524Z,992.06
2022-12-23T08:49:38.546Z,992.17
2022-12-23T08:50:40.538Z,992.16
2022-12-23T08:51:42.634Z,992.18
2022-12-23T08:52:44.625Z,992.21
2022-12-23T08:53:46.710Z,992.23
2022-12-23T08:54:48.744Z,992.21
2022-12-23T08:55:50.766Z,992.24
2022-12-23T08:56:52.804Z,992.29
2022-12-23T08:57:54.861Z,992.25
2022-12-23T08:58:56.915Z,992.28
2022-12-23T08:59:58.944Z,992.29
2022-12-23T09:01:01.019Z,992.27
2022-12-23T09:02:03.201Z,992.30
2022-12-23T09:03:04.316Z,992.33
2022-12-23T09:04:05.400Z,992.30
2022-12-23T09:05:06.382Z,992.35
2022-12-23T09:06:08.409Z,992.40
2022-12-23T09:07:10.432Z,992.41
2022-12-23T09:08:12.480Z,992.45
2022-12-23T09:09:14.516Z,992.45
2022-12-23T09:10:16.604Z,992.45
2022-12-23T09:11:18.613Z,992.41
2022-12-23T09:12:20.655Z,992.43
2022-12-23T09:13:32.828Z,992.49
2022-12-23T09:14:24.139Z,992.51
2022-12-23T09:15:26.163Z,992.46
2022-12-23T09:16:28.287Z,992.47
2022-12-23T09:17:30.356Z,992.49
2022-12-23T09:18:32.399Z,992.46
2022-12-23T09:19:34.412Z,992.46
2022-12-23T09:20:36.460Z,992.48
2022-12-23T09:21:38.507Z,992.46
2022-12-23T09:22:40.532Z,992.43
2022-12-23T09:23:42.547Z,992.43
2022-12-23T09:24:44.603Z,992.46
2022-12-23T09:25:46.626Z,992.43
2022-12-23T09:26:48.637Z,992.48
2022-12-23T09:27:50.657Z,992.50
2022-12-23T09:28:52.688Z,992.48
2022-12-23T09:29:54.701Z,992.46
2022-12-23T09:30:56.774Z,992.51
2022-12-23T09:31:58.880Z,992.48
2022-12-23T09:33:00.928Z,992.48
2022-12-23T09:34:02.963Z,992.53
2022-12-23T09:35:05.026Z,992.57
2022-12-23T09:36:07.079Z,992.61
2022-12-23T09:37:09.083Z,992.65
2022-12-23T09:38:11.128Z,992.58
2022-12-23T09:39:13.146Z,992.65
2022-12-23T09:40:15.195Z,992.68
2022-12-23T09:41:17.290Z,992.71
2022-12-23T09:42:19.287Z,992.75
2022-12-23T09:43:21.322Z,992.74
2022-12-23T09:44:23.315Z,992.74
2022-12-23T09:45:25.361Z,992.77
2022-12-23T09:46:27.453Z,992.75
2022-12-23T09:47:29.474Z,992.75
2022-12-23T09:48:31.517Z,992.79
2022-12-23T09:49:33.541Z,992.80
2022-12-23T09:50:35.583Z,992.82
2022-12-23T09:51:37.583Z,992.83
2022-12-23T09:52:39.620Z,992.81
2022-12-23T09:53:41.631Z,992.88
2022-12-23T09:54:43.661Z,992.87
2022-12-23T09:55:45.682Z,992.90
2022-12-23T09:56:47.715Z,992.90
2022-12-23T09:57:49.727Z,992.92
2022-12-23T09:58:51.760Z,992.86
2022-12-23T09:59:53.799Z,992.83
2022-12-23T10:00:55.879Z,992.88
2022-12-23T10:01:57.960Z,992.83
2022-12-23T10:03:00.331Z,992.86
2022-12-23T10:04:01.593Z,992.82
2022-12-23T10:05:03.603Z,992.82
2022-12-23T10:06:05.666Z,992.81
2022-12-23T10:07:07.665Z,992.77
2022-12-23T10:08:09.697Z,992.76
2022-12-23T10:09:11.755Z,992.78
2022-12-23T10:10:13.753Z,992.76
2022-12-23T10:11:15.828Z,992.74
2022-12-23T10:12:21.048Z,992.75
2022-12-23T10:13:19.284Z,992.71
2022-12-23T10:14:21.332Z,992.76
2022-12-23T10:15:23.351Z,992.72
2022-12-23T10:16:25.505Z,992.76
2022-12-23T10:17:27.559Z,992.72
2022-12-23T10:18:29.582Z,992.73
2022-12-23T10:19:31.634Z,992.70
2022-12-23T10:20:33.645Z,992.75
2022-12-23T10:21:35.691Z,992.69
2022-12-23T10:22:37.722Z,992.71
2022-12-23T10:23:39.721Z,992.62
2022-12-23T10:24:41.750Z,992.60
2022-12-23T10:25:43.762Z,992.62
2022-12-23T10:26:45.789Z,992.61
2022-12-23T10:27:47.818Z,992.66
2022-12-23T10:28:49.861Z,992.67
2022-12-23T10:29:51.917Z,992.71
2022-12-23T10:31:17.370Z,992.69
2022-12-23T10:31:55.342Z,992.69
2022-12-23T10:32:57.365Z,992.68
2022-12-23T10:33:59.445Z,992.68
2022-12-23T10:35:01.443Z,992.68
2022-12-23T10:36:03.505Z,992.62
2022-12-23T10:37:05.709Z,992.65
2022-12-23T10:38:06.667Z,992.67
2022-12-23T10:39:08.676Z,992.68
2022-12-23T10:40:10.765Z,992.66
2022-12-23T10:41:12.777Z,992.65
2022-12-23T10:42:14.825Z,992.64
2022-12-23T10:43:16.889Z,992.60
2022-12-23T10:44:18.914Z,992.60
2022-12-23T10:45:20.941Z,992.60
2022-12-23T10:46:22.980Z,992.60
2022-12-23T10:47:25.001Z,992.63
2022-12-23T10:48:27.040Z,992.69
2022-12-23T10:49:29.120Z,992.72
2022-12-23T10:50:31.143Z,992.66
2022-12-23T10:51:33.170Z,992.70
2022-12-23T10:52:35.196Z,992.75
2022-12-23T10:53:37.198Z,992.76
2022-12-23T10:54:39.230Z,992.76
2022-12-23T10:55:41.308Z,992.83
2022-12-23T10:56:43.296Z,992.83
2022-12-23T10:57:45.336Z,992.84
2022-12-23T10:58:47.447Z,992.82
2022-12-23T10:59:48.889Z,992.82
2022-12-23T11:00:51.004Z,992.84
2022-12-23T11:01:53.257Z,992.83
2022-12-23T11:02:54.480Z,992.81
2022-12-23T11:03:56.629Z,992.80
2022-12-23T11:04:58.615Z,992.84
2022-12-23T11:06:00.611Z,992.79
2022-12-23T11:07:43.011Z,992.80
2022-12-23T11:08:04.833Z,992.82
2022-12-23T11:09:06.865Z,992.81
2022-12-23T11:10:08.868Z,992.84
2022-12-23T11:11:10.879Z,992.85
2022-12-23T11:12:12.893Z,992.87
2022-12-23T11:13:14.931Z,992.86
2022-12-23T11:14:16.967Z,992.91
2022-12-23T11:15:18.972Z,992.89
2022-12-23T11:16:21.099Z,992.87
2022-12-23T11:17:23.126Z,992.90
2022-12-23T11:18:25.159Z,992.88
2022-12-23T11:19:27.189Z,992.89
2022-12-23T11:20:29.195Z,992.91
2022-12-23T11:21:31.217Z,992.89
2022-12-23T11:22:33.226Z,992.93
2022-12-23T11:23:35.262Z,992.91
2022-12-23T11:24:42.997Z,992.86
2022-12-23T11:25:38.697Z,992.87
2022-12-23T11:26:40.709Z,992.86
2022-12-23T11:27:42.066Z,992.84
2022-12-23T11:28:44.115Z,992.82
2022-12-23T11:29:46.137Z,992.86
2022-12-23T11:30:55.571Z,992.87
2022-12-23T11:31:49.682Z,992.87
2022-12-23T11:32:51.733Z,992.83
2022-12-23T11:33:53.464Z,992.79
2022-12-23T11:34:55.576Z,992.76
2022-12-23T11:35:57.599Z,992.72
2022-12-23T11:37:03.696Z,992.68
2022-12-23T11:38:01.053Z,992.69
2022-12-23T11:39:03.096Z,992.65
2022-12-23T11:40:05.134Z,992.65
2022-12-23T11:41:07.155Z,992.60
2022-12-23T11:42:09.165Z,992.64
2022-12-23T11:43:11.177Z,992.59
2022-12-23T11:44:13.224Z,992.60
2022-12-23T11:45:15.256Z,992.56
2022-12-23T11:46:17.339Z,992.54
2022-12-23T11:47:19.357Z,992.54
2022-12-23T11:48:21.397Z,992.50
2022-12-23T11:49:23.416Z,992.48
2022-12-23T11:50:25.457Z,992.50
2022-12-23T11:51:27.470Z,992.44
2022-12-23T11:52:29.517Z,992.45
2022-12-23T11:53:32.118Z,992.49
2022-12-23T11:54:33.052Z,992.47
2022-12-23T11:55:35.083Z,992.49
2022-12-23T11:56:37.139Z,992.50
2022-12-23T11:57:39.146Z,992.49
2022-12-23T11:58:41.158Z,992.45
2022-12-23T11:59:43.246Z,992.48
2022-12-23T12:00:49.311Z,992.52
2022-12-23T12:01:46.754Z,992.52
2022-12-23T12:02:48.855Z,992.57
2022-12-23T12:03:51.000Z,992.56
2022-12-23T12:04:53.073Z,992.52
2022-12-23T12:05:55.099Z,992.53
2022-12-23T12:06:57.125Z,992.47
2022-12-23T12:07:59.176Z,992.50
2022-12-23T12:09:01.172Z,992.48
2022-12-23T12:10:03.229Z,992.51
2022-12-23T12:11:05.245Z,992.53
2022-12-23T12:12:07.315Z,992.57
2022-12-23T12:13:09.355Z,992.53
2022-12-23T12:14:11.412Z,992.50
2022-12-23T12:15:13.437Z,992.50
2022-12-23T12:16:15.530Z,992.54
2022-12-23T12:17:17.635Z,992.51
2022-12-23T12:18:19.677Z,992.52
2022-12-23T12:19:21.684Z,992.53
2022-12-23T12:20:23.706Z,992.64
2022-12-23T12:21:25.722Z,992.60
2022-12-23T12:22:27.772Z,992.55
2022-12-23T12:23:29.810Z,992.57
2022-12-23T12:24:31.821Z,992.57
2022-12-23T12:25:37.956Z,992.59
2022-12-23T12:26:35.273Z,992.58
2022-12-23T12:27:37.306Z,992.58
2022-12-23T12:28:39.351Z,992.55
2022-12-23T12:29:41.382Z,992.58
2022-12-23T12:30:43.464Z,992.56
2022-12-23T12:31:45.495Z,992.54
2022-12-23T12:32:47.533Z,992.58
2022-12-23T12:33:49.563Z,992.56
2022-12-23T12:34:51.596Z,992.54
2022-12-23T12:35:54.270Z,992.53
2022-12-23T12:36:55.112Z,992.51
2022-12-23T12:37:57.172Z,992.50
2022-12-23T12:38:59.200Z,992.45
2022-12-23T12:40:01.250Z,992.44
2022-12-23T12:41:03.297Z,992.45
2022-12-23T12:42:06.106Z,992.44
2022-12-23T12:43:07.025Z,992.43
2022-12-23T12:44:09.023Z,992.46
2022-12-23T12:45:11.056Z,992.50
2022-12-23T12:46:13.133Z,992.45
2022-12-23T12:47:44.725Z,992.49
2022-12-23T12:48:19.023Z,992.52
2022-12-23T12:49:17.802Z,992.51
2022-12-23T12:50:19.836Z,992.44
2022-12-23T12:51:21.844Z,992.45
2022-12-23T12:52:23.848Z,992.45
2022-12-23T12:53:25.949Z,992.39
2022-12-23T12:54:27.972Z,992.38
2022-12-23T12:55:30.103Z,992.35
2022-12-23T12:56:32.098Z,992.34
2022-12-23T12:57:34.110Z,992.32
2022-12-23T12:58:36.141Z,992.28
2022-12-23T12:59:37.660Z,992.29
2022-12-23T13:00:39.701Z,992.27
2022-12-23T13:01:41.815Z,992.24
2022-12-23T13:02:43.902Z,992.23
2022-12-23T13:03:45.904Z,992.24
2022-12-23T13:04:47.913Z,992.26
2022-12-23T13:05:53.849Z,992.30
2022-12-23T13:06:52.105Z,992.28
2022-12-23T13:07:54.114Z,992.23
2022-12-23T13:08:56.140Z,992.27
2022-12-23T13:09:58.160Z,992.29
2022-12-23T13:11:00.178Z,992.24
2022-12-23T13:12:02.251Z,992.23
2022-12-23T13:13:04.268Z,992.25
2022-12-23T13:14:06.307Z,992.20
2022-12-23T13:15:08.312Z,992.22
2022-12-23T13:16:10.344Z,992.23
2022-12-23T13:17:12.475Z,992.25
2022-12-23T13:18:14.538Z,992.26
2022-12-23T13:19:16.571Z,992.25
2022-12-23T13:20:18.606Z,992.27
2022-12-23T13:21:20.618Z,992.30
2022-12-23T13:22:22.638Z,992.29
2022-12-23T13:24:26.105Z,992.31
2022-12-23T13:25:28.113Z,992.29
2022-12-23T13:26:30.138Z,992.27
2022-12-23T13:27:32.142Z,992.29
2022-12-23T13:28:34.173Z,992.25
2022-12-23T13:29:36.189Z,992.24
2022-12-23T13:30:38.260Z,992.24
2022-12-23T13:31:40.260Z,992.22
2022-12-23T13:32:42.282Z,992.20
2022-12-23T13:33:44.338Z,992.17
2022-12-23T13:34:46.369Z,992.13
2022-12-23T13:35:48.369Z,992.11
2022-12-23T13:36:50.444Z,992.16
2022-12-23T13:37:52.551Z,992.12
2022-12-23T13:38:54.559Z,992.13
2022-12-23T13:39:56.582Z,992.07
2022-12-23T13:40:58.607Z,992.07
2022-12-23T13:42:05.101Z,992.04
2022-12-23T13:43:02.054Z,992.02
2022-12-23T13:44:04.087Z,992.01
2022-12-23T13:45:06.099Z,992.00
2022-12-23T13:46:08.136Z,992.01
2022-12-23T13:47:10.157Z,991.98
2022-12-23T13:48:12.225Z,991.96
2022-12-23T13:49:14.239Z,991.95
2022-12-23T13:50:16.266Z,991.95
2022-12-23T13:51:18.282Z,991.99
2022-12-23T13:52:20.319Z,991.97
2022-12-23T13:53:22.389Z,991.99
2022-12-23T13:54:24.403Z,992.01
2022-12-23T13:55:27.382Z,991.99
2022-12-23T13:56:28.290Z,991.99
2022-12-23T13:57:30.308Z,992.01
2022-12-23T13:58:32.353Z,992.03
2022-12-23T13:59:34.371Z,992.03
2022-12-23T14:00:36.380Z,992.05
2022-12-23T14:01:38.471Z,991.98
2022-12-23T14:02:40.526Z,991.93
2022-12-23T14:03:42.563Z,991.96
2022-12-23T14:04:44.595Z,991.93
2022-12-23T14:05:46.621Z,991.90
2022-12-23T14:06:48.643Z,991.88
2022-12-23T14:07:50.656Z,991.90
2022-12-23T14:08:52.686Z,991.83
2022-12-23T14:09:54.745Z,991.81
2022-12-23T14:10:56.737Z,991.85
2022-12-23T14:12:02.780Z,991.82
2022-12-23T14:13:00.177Z,991.84
2022-12-23T14:14:02.249Z,991.89
2022-12-23T14:15:04.318Z,991.87
2022-12-23T14:16:06.417Z,991.88
2022-12-23T14:17:08.452Z,991.90
2022-12-23T14:18:10.480Z,991.87
2022-12-23T14:19:12.526Z,991.86
2022-12-23T14:20:14.596Z,991.87
2022-12-23T14:21:16.572Z,991.83
2022-12-23T14:22:18.585Z,991.81
2022-12-23T14:23:20.599Z,991.89
2022-12-23T14:24:22.847Z,991.90
2022-12-23T14:25:23.779Z,991.91
2022-12-23T14:26:25.820Z,991.92
2022-12-23T14:27:27.841Z,991.90
2022-12-23T14:28:29.935Z,991.89
2022-12-23T14:29:31.957Z,991.89
2022-12-23T14:30:34.025Z,991.85
2022-12-23T14:31:36.073Z,991.81
2022-12-23T14:32:38.216Z,991.77
2022-12-23T14:33:40.247Z,991.80
2022-12-23T14:34:42.330Z,991.76
2022-12-23T14:35:44.386Z,991.72
2022-12-23T14:36:46.480Z,991.74
2022-12-23T14:37:48.506Z,991.70
2022-12-23T14:38:50.584Z,991.68
2022-12-23T14:39:52.638Z,991.71
2022-12-23T14:40:54.712Z,991.71
2022-12-23T14:42:03.508Z,991.75
2022-12-23T14:42:58.172Z,991.74
2022-12-23T14:44:00.173Z,991.76
2022-12-23T14:45:02.217Z,991.75
2022-12-23T14:46:04.235Z,991.74
2022-12-23T14:47:06.281Z,991.70
2022-12-23T14:48:08.279Z,991.73
2022-12-23T14:49:37.614Z,991.72
2022-12-23T14:50:11.739Z,991.74
2022-12-23T14:51:13.773Z,991.66
2022-12-23T14:52:15.782Z,991.67
2022-12-23T14:53:17.793Z,991.69
2022-12-23T14:54:19.847Z,991.65
2022-12-23T14:55:30.261Z,991.66
2022-12-23T14:56:23.318Z,991.63
2022-12-23T14:57:25.344Z,991.57
2022-12-23T14:58:27.382Z,991.58
2022-12-23T14:59:29.391Z,991.56
2022-12-23T15:00:31.446Z,991.53
2022-12-23T15:01:33.566Z,991.51
2022-12-23T15:02:35.655Z,991.53
2022-12-23T15:03:37.686Z,991.56
2022-12-23T15:04:39.697Z,991.55
